KRAP/RAP METAR and TAF weather

Enter ICAO airport designator
Station Type Date Time Source
KRAP METAR 2020/07/06 00:52 UTC NOAA

KRAP 060052Z 36013KT 10SM CLR 27/16 A2992 RMK AO2 SLP104 T02720156


Station Type Date Time Source
KRAP Decoded METAR 2020/07/06 00:52 UTC NOAA

RAPID CITY REGIONAL AIRPORT , SD, United States (KRAP) 44-03N 103-03W 965M
Jul 05, 2020 - 08:52 PM EDT / 2020.07.06 0052 UTC
Wind: from the N (360 degrees) at 15 MPH (13 KT):0
Visibility: 10 mile(s):0
Sky conditions: clear
Temperature: 81.0 F (27.2 C)
Dew Point: 60.1 F (15.6 C)
Relative Humidity: 49%
Pressure (altimeter): 29.92 in. Hg (1013 hPa)
ob: KRAP 060052Z 36013KT 10SM CLR 27/16 A2992 RMK AO2 SLP104 T02720156
cycle: 1

Station Type Date Time Source
KRAP TAF 2020/07/05 18:22 UTC NOAA

TAF KRAP 051720Z 0518/0618 36014KT P6SM SCT200
TEMPO 0522/0601 P6SM -TSRA BKN060CB
FM060200 32011KT P6SM TSRA OVC060CB
FM060600 33005KT P6SM BKN250

Example: see airport list